This is the latest recevied weather packets stored in our database for station/object WT9M-8. If no packets are shown the sender has not sent any weather packets the latest 10 day(s).
| Time | Temp. | Humidity | Pressure | Rain* | Wind** | Luminosity | Snow |
|---|---|---|---|---|---|---|---|
| 1777083017 | 8.89° C | 80% | 1010.6 hPa | 0 mm | - | 0 W/m² | - |
| 1777082432 | 9.44° C | 79% | 1010.5 hPa | 0 mm | - | 0 W/m² | - |
| 1777081827 | 9.44° C | 77% | 1010.3 hPa | 0 mm | - | 0 W/m² | - |
| 1777079427 | 12.78° C | 63% | 1009.7 hPa | 0 mm | - | 0 W/m² | - |
| 1777077028 | 17.22° C | 53% | 1009.3 hPa | 0 mm | - | 9 W/m² | - |
| 1777075234 | 18.89° C | 48% | 1009.2 hPa | 0 mm | - | 30 W/m² | - |
| 1777074026 | 20° C | 46% | 1009.2 hPa | 0 mm | - | 23 W/m² | - |
| 1777071021 | 22.22° C | 42% | 1008.7 hPa | 0 mm | - | 142 W/m² | - |
| 1777070436 | 22.22° C | 41% | 1008.8 hPa | 0 mm | - | 159 W/m² | - |
| 1777064428 | 24.44° C | 44% | 1008.3 hPa | 0 mm | - | 405 W/m² | - |
| 1777063823 | 25° C | 45% | 1008.1 hPa | 0 mm | - | 433 W/m² | - |
| 1777062633 | 24.44° C | 49% | 1008.1 hPa | 0 mm | - | 500 W/m² | - |
| 1777061444 | 23.89° C | 49% | 1008 hPa | 0 mm | - | 552 W/m² | - |
| 1777058421 | 22.22° C | 55% | 1007.8 hPa | 0 mm | - | 648 W/m² | - |
| 1777056628 | 21.67° C | 57% | 1007.5 hPa | 0 mm | - | 700 W/m² | - |
| 1777055438 | 21.67° C | 59% | 1007.4 hPa | 0 mm | - | 689 W/m² | - |
| 1777051830 | 18.89° C | 65% | 1007.4 hPa | 0 mm | - | 555 W/m² | - |
| 1777051225 | 19.44° C | 66% | 1007.2 hPa | 0 mm | - | 536 W/m² | - |
| 1777048826 | 17.22° C | 70% | 1007.4 hPa | 0 mm | - | 230 W/m² | - |
| 1777048222 | 17.22° C | 71% | 1007.3 hPa | 0 mm | - | 257 W/m² | - |
| 1777041029 | 12.22° C | 88% | 1005.5 hPa | 0 mm | - | 119 W/m² | - |
| 1777039817 | 12.22° C | 88% | 1005.5 hPa | 0 mm | - | 74 W/m² | - |
| 1777039233 | 12.22° C | 89% | 1005.4 hPa | 0 mm | - | 42 W/m² | - |
| 1777034417 | 14.44° C | 90% | 1003.9 hPa | 0 mm | - | 5 W/m² | - |
| 1777032018 | 13.89° C | 91% | 1002.8 hPa | 0 mm | - | 15 W/m² | - |
* Rain latest hour (hover to see other rain measurements)
** Current wind speed in m/s (hover to see current wind gust speed)